Time;durP1;ratioP1;P1;durP2;ratioP2;P2;SDS_P1;SDS_P2;PMS_P1;PMS_P2;Temp;Humidity;BMP_temperature;BMP_pressure;BME280_temperature;BME280_humidity;BME280_pressure;Samples;Min_cycle;Max_cycle;Signal;HPM_P1;HPM_P2
2022/10/19 00:01:13;;;;;;;7.05;2.90;;;15.00;89.70;;;;;;5093967;28;20059;-63
2022/10/19 00:03:49;;;;;;;8.02;3.30;;;14.90;89.70;;;;;;5096831;28;21288;-63
2022/10/19 00:06:24;;;;;;;7.60;3.63;;;14.90;89.60;;;;;;5095101;27;20080;-63
2022/10/19 00:08:51;;;;;;;5.10;3.17;;;14.90;89.60;;;;;;5095228;27;20386;-64
2022/10/19 00:11:20;;;;;;;9.82;3.80;;;14.80;89.50;;;;;;5094745;28;20059;-65
2022/10/19 00:13:47;;;;;;;11.48;4.28;;;14.80;89.50;;;;;;5087658;28;20477;-64
2022/10/19 00:16:16;;;;;;;5.68;3.13;;;14.80;89.40;;;;;;5084182;28;20196;-64
2022/10/19 00:18:44;;;;;;;5.95;3.38;;;14.70;89.40;;;;;;5090918;28;20500;-64
2022/10/19 00:21:14;;;;;;;7.43;3.80;;;14.70;89.40;;;;;;5090722;28;20489;-64
2022/10/19 00:23:46;;;;;;;8.40;3.35;;;14.70;89.40;;;;;;5091578;28;20480;-64
2022/10/19 00:26:13;;;;;;;7.50;3.55;;;14.60;89.30;;;;;;5092584;28;20049;-63
2022/10/19 00:28:41;;;;;;;8.60;3.28;;;14.60;89.30;;;;;;5089838;28;20535;-65
2022/10/19 00:31:10;;;;;;;6.80;3.38;;;14.60;89.30;;;;;;5092984;28;20509;-63
2022/10/19 00:33:41;;;;;;;8.68;3.40;;;14.50;89.30;;;;;;5095506;28;20051;-64
2022/10/19 00:36:21;;;;;;;7.90;3.47;;;14.50;89.20;;;;;;5094394;28;20189;-62
2022/10/19 00:38:48;;;;;;;8.00;3.58;;;14.50;89.20;;;;;;5092251;28;20050;-63
2022/10/19 00:41:19;;;;;;;9.43;3.58;;;14.50;89.20;;;;;;5088684;28;20044;-63
2022/10/19 00:43:59;;;;;;;6.80;2.72;;;14.40;89.20;;;;;;5088837;28;20050;-65
2022/10/19 00:46:27;;;;;;;6.25;3.15;;;14.40;89.20;;;;;;5084997;28;20425;-63
2022/10/19 00:48:59;;;;;;;8.65;2.97;;;14.40;89.30;;;;;;5091667;28;20052;-64
2022/10/19 00:51:28;;;;;;;9.32;3.75;;;14.40;89.30;;;;;;5086762;28;20130;-64
2022/10/19 00:53:56;;;;;;;7.45;3.22;;;14.40;89.20;;;;;;5088832;28;20087;-64
2022/10/19 00:56:23;;;;;;;8.07;3.65;;;14.40;89.30;;;;;;5084065;28;20052;-65
2022/10/19 00:58:50;;;;;;;7.78;3.33;;;14.40;89.40;;;;;;5087793;28;20041;-63
2022/10/19 01:01:22;;;;;;;9.23;3.60;;;14.30;89.40;;;;;;5084974;28;20071;-64
2022/10/19 01:03:48;;;;;;;8.45;3.63;;;14.40;89.30;;;;;;5090238;28;20048;-65
2022/10/19 01:06:17;;;;;;;9.57;3.65;;;14.30;89.40;;;;;;5089234;28;20697;-64
2022/10/19 01:08:44;;;;;;;7.93;4.20;;;14.30;89.50;;;;;;5092539;28;20417;-65
2022/10/19 01:11:31;;;;;;;7.63;4.03;;;14.30;89.50;;;;;;5086717;28;20040;-63
2022/10/19 01:14:07;;;;;;;7.78;3.97;;;14.30;89.60;;;;;;5081632;28;20123;-64
2022/10/19 01:16:46;;;;;;;8.98;4.05;;;14.20;89.70;;;;;;5089772;28;20055;-64
2022/10/19 01:19:41;;;;;;;9.43;4.40;;;14.30;89.70;;;;;;5085894;28;20055;-64
2022/10/19 01:22:20;;;;;;;7.88;4.07;;;14.30;89.50;;;;;;5094884;28;20048;-65
2022/10/19 01:25:08;;;;;;;7.50;3.87;;;14.20;89.40;;;;;;5093798;28;20032;-64
2022/10/19 01:28:00;;;;;;;8.90;4.47;;;14.20;89.40;;;;;;5090497;28;20126;-65
2022/10/19 01:30:39;;;;;;;9.88;4.60;;;14.20;89.50;;;;;;5092991;28;20128;-64
2022/10/19 01:33:20;;;;;;;10.05;4.95;;;14.10;89.70;;;;;;5094711;28;20060;-64
2022/10/19 01:35:59;;;;;;;8.27;4.78;;;14.10;89.90;;;;;;5098620;28;20063;-65
2022/10/19 01:38:34;;;;;;;11.07;4.57;;;14.20;89.70;;;;;;5095902;28;20417;-64
2022/10/19 01:41:10;;;;;;;8.68;4.45;;;14.20;89.70;;;;;;5097950;28;20159;-65
2022/10/19 01:43:43;;;;;;;8.85;4.22;;;14.20;89.80;;;;;;5098231;28;20123;-65
2022/10/19 01:46:15;;;;;;;8.98;4.63;;;14.20;89.70;;;;;;5097662;28;20051;-65
2022/10/19 01:48:50;;;;;;;9.93;4.72;;;14.20;89.60;;;;;;5097043;28;20032;-65
2022/10/19 01:51:21;;;;;;;8.90;4.88;;;14.20;89.60;;;;;;5098396;28;20066;-65
2022/10/19 01:53:52;;;;;;;10.75;4.47;;;14.20;89.70;;;;;;5099591;28;20214;-65
2022/10/19 01:56:24;;;;;;;7.13;3.78;;;14.20;89.80;;;;;;5097325;28;20044;-66
2022/10/19 01:58:53;;;;;;;6.85;3.95;;;14.10;89.80;;;;;;5096750;28;20044;-64
2022/10/19 02:01:26;;;;;;;8.55;4.05;;;14.10;89.90;;;;;;5084822;28;20048;-65
2022/10/19 02:03:54;;;;;;;7.55;4.00;;;14.10;89.60;;;;;;5089028;28;20047;-64
2022/10/19 02:06:22;;;;;;;8.70;4.50;;;14.20;89.30;;;;;;5091857;28;20052;-65
2022/10/19 02:08:51;;;;;;;8.82;3.38;;;14.20;89.40;;;;;;5099034;28;20496;-65
2022/10/19 02:11:20;;;;;;;6.90;3.63;;;14.10;89.40;;;;;;5097607;28;20047;-65
2022/10/19 02:13:53;;;;;;;6.47;3.45;;;14.00;89.60;;;;;;5097660;28;20047;-65
2022/10/19 02:16:27;;;;;;;6.90;3.60;;;13.90;89.60;;;;;;5095692;28;20040;-65
2022/10/19 02:18:55;;;;;;;8.23;3.30;;;13.90;89.60;;;;;;5109505;28;20047;-64
2022/10/19 02:21:22;;;;;;;5.82;3.40;;;13.90;89.60;;;;;;5117167;28;20054;-63
2022/10/19 02:23:50;;;;;;;9.27;3.47;;;13.80;89.60;;;;;;5102460;28;20050;-64
2022/10/19 02:26:16;;;;;;;5.80;3.25;;;13.80;89.40;;;;;;5098870;28;20052;-65
2022/10/19 02:28:43;;;;;;;7.00;3.42;;;13.90;89.30;;;;;;5097020;28;20515;-64
2022/10/19 02:31:11;;;;;;;6.75;3.15;;;13.80;89.30;;;;;;5099653;28;20044;-64
2022/10/19 02:33:39;;;;;;;7.03;3.03;;;13.80;89.40;;;;;;5095872;28;20051;-65
2022/10/19 02:36:07;;;;;;;5.68;2.92;;;13.90;89.10;;;;;;5098388;28;20131;-64
2022/10/19 02:38:34;;;;;;;7.35;3.50;;;13.80;89.00;;;;;;5095422;28;20048;-64
2022/10/19 02:41:07;;;;;;;7.13;4.05;;;13.80;89.00;;;;;;5094580;28;20051;-64
2022/10/19 02:43:37;;;;;;;6.50;3.55;;;13.70;89.10;;;;;;5095479;28;20062;-65
2022/10/19 02:46:09;;;;;;;6.53;3.72;;;13.70;89.20;;;;;;5097836;27;20052;-64
2022/10/19 02:48:37;;;;;;;6.82;3.80;;;13.60;89.10;;;;;;5096026;28;20062;-64
2022/10/19 02:51:06;;;;;;;6.97;3.72;;;13.60;89.20;;;;;;5094704;28;20051;-64
2022/10/19 02:53:33;;;;;;;7.13;3.42;;;13.50;89.10;;;;;;5097533;28;20044;-65
2022/10/19 02:56:00;;;;;;;6.30;3.35;;;13.50;89.10;;;;;;5096312;28;20043;-65
2022/10/19 02:58:29;;;;;;;6.05;3.25;;;13.50;89.00;;;;;;5094583;28;20091;-65
2022/10/19 03:00:55;;;;;;;5.40;3.00;;;13.50;88.90;;;;;;5096912;28;20040;-65
2022/10/19 03:03:22;;;;;;;5.60;2.97;;;13.40;88.90;;;;;;5096762;28;20797;-65
2022/10/19 03:05:49;;;;;;;5.88;3.10;;;13.40;88.80;;;;;;5097007;28;20052;-65
2022/10/19 03:08:17;;;;;;;8.63;3.30;;;13.40;88.90;;;;;;5091658;28;20073;-64
2022/10/19 03:10:44;;;;;;;7.25;3.97;;;13.30;88.90;;;;;;5097807;28;20050;-64
2022/10/19 03:13:11;;;;;;;6.90;3.40;;;13.50;88.90;;;;;;5096388;28;20048;-65
2022/10/19 03:15:38;;;;;;;7.85;3.78;;;13.50;88.70;;;;;;5093809;28;20304;-65
2022/10/19 03:18:07;;;;;;;10.25;3.83;;;13.40;88.80;;;;;;5088616;28;20052;-64
2022/10/19 03:20:34;;;;;;;6.38;3.53;;;13.40;88.90;;;;;;5096473;28;20047;-64
2022/10/19 03:23:01;;;;;;;6.63;3.53;;;13.30;89.00;;;;;;5096355;28;20047;-64
2022/10/19 03:25:29;;;;;;;7.85;3.30;;;13.20;89.00;;;;;;5095414;28;20051;-64
2022/10/19 03:27:56;;;;;;;7.68;3.60;;;13.20;88.90;;;;;;5096106;28;20144;-64
2022/10/19 03:30:23;;;;;;;5.97;2.95;;;13.20;88.90;;;;;;5094130;27;20050;-65
2022/10/19 03:32:50;;;;;;;7.60;3.20;;;13.20;88.80;;;;;;5096298;28;20063;-65
2022/10/19 03:35:17;;;;;;;5.53;2.88;;;13.20;88.90;;;;;;5093006;28;20044;-64
2022/10/19 03:37:44;;;;;;;6.28;3.17;;;13.20;88.70;;;;;;5097020;28;20413;-64
2022/10/19 03:40:11;;;;;;;5.25;2.78;;;13.20;88.80;;;;;;5095766;28;20054;-65
2022/10/19 03:42:40;;;;;;;8.20;3.40;;;13.10;88.70;;;;;;5094064;28;20048;-64
2022/10/19 03:45:07;;;;;;;7.00;3.17;;;13.20;88.70;;;;;;5093500;28;20044;-64
2022/10/19 03:47:34;;;;;;;6.22;3.22;;;13.20;88.40;;;;;;5096642;28;20557;-64
2022/10/19 03:50:01;;;;;;;6.47;3.42;;;13.20;88.30;;;;;;5094782;28;20127;-64
2022/10/19 03:52:28;;;;;;;9.27;3.55;;;13.20;88.40;;;;;;5094053;28;20040;-64
2022/10/19 03:54:55;;;;;;;8.57;3.47;;;13.20;88.00;;;;;;5095263;28;20043;-64
2022/10/19 03:57:22;;;;;;;7.32;3.60;;;13.20;87.90;;;;;;5093986;28;20054;-64
2022/10/19 03:59:51;;;;;;;6.03;3.08;;;13.20;87.90;;;;;;5096172;28;20213;-64
2022/10/19 04:02:18;;;;;;;6.95;3.75;;;13.20;87.70;;;;;;5096048;28;20040;-64
2022/10/19 04:04:45;;;;;;;7.75;4.05;;;13.10;87.70;;;;;;5096823;28;20072;-64
2022/10/19 04:07:12;;;;;;;9.00;3.83;;;13.10;87.70;;;;;;5095385;28;20435;-65
2022/10/19 04:09:39;;;;;;;10.20;3.83;;;13.10;87.60;;;;;;5096238;28;20039;-65
2022/10/19 04:12:06;;;;;;;8.35;4.18;;;13.00;87.60;;;;;;5095775;28;20052;-65
2022/10/19 04:14:33;;;;;;;7.22;3.92;;;13.00;87.40;;;;;;5093654;28;20503;-64
2022/10/19 04:17:02;;;;;;;8.68;3.13;;;13.00;87.50;;;;;;5096411;27;20130;-64
2022/10/19 04:19:30;;;;;;;8.57;3.58;;;12.90;87.50;;;;;;5095730;28;20056;-62
2022/10/19 04:21:57;;;;;;;8.23;3.63;;;12.80;87.80;;;;;;5092461;28;20075;-65
2022/10/19 04:24:25;;;;;;;6.32;3.20;;;12.80;88.00;;;;;;5095128;28;20056;-65
2022/10/19 04:26:53;;;;;;;7.32;3.78;;;12.80;88.10;;;;;;5095843;28;20055;-64
2022/10/19 04:29:22;;;;;;;6.93;3.42;;;12.80;88.20;;;;;;5095767;28;20048;-64
2022/10/19 04:31:50;;;;;;;6.50;3.65;;;12.70;88.40;;;;;;5095833;28;20052;-64
2022/10/19 04:34:18;;;;;;;12.80;4.07;;;12.70;88.20;;;;;;5090517;28;20067;-64
2022/10/19 04:36:46;;;;;;;7.72;3.95;;;12.80;88.10;;;;;;5092964;28;20039;-63
2022/10/19 04:39:12;;;;;;;7.03;3.65;;;12.80;88.20;;;;;;5095253;28;20055;-65
2022/10/19 04:41:39;;;;;;;10.50;3.90;;;12.80;88.20;;;;;;5089489;28;20052;-64
2022/10/19 04:44:06;;;;;;;6.82;3.25;;;12.80;88.10;;;;;;5084202;28;20044;-64
2022/10/19 04:46:34;;;;;;;6.68;3.13;;;12.80;88.30;;;;;;5085402;28;20154;-66
2022/10/19 04:49:03;;;;;;;6.78;3.42;;;12.70;88.30;;;;;;5091841;28;20067;-64
2022/10/19 04:51:31;;;;;;;8.65;3.35;;;12.70;88.20;;;;;;5087214;28;20046;-64
2022/10/19 04:53:58;;;;;;;9.60;3.92;;;12.70;88.30;;;;;;5092525;28;20054;-64
2022/10/19 04:56:26;;;;;;;6.10;3.60;;;12.70;88.30;;;;;;5087650;28;20049;-65
2022/10/19 04:58:55;;;;;;;7.97;4.18;;;12.70;88.20;;;;;;5101932;28;20100;-64
2022/10/19 05:01:22;;;;;;;10.25;4.50;;;12.70;88.00;;;;;;5104593;28;20059;-64
2022/10/19 05:03:53;;;;;;;9.10;4.00;;;12.70;88.00;;;;;;5094052;28;20039;-65
2022/10/19 05:06:20;;;;;;;9.65;4.28;;;12.70;88.00;;;;;;5097184;28;20594;-64
2022/10/19 05:08:50;;;;;;;9.02;4.10;;;12.80;87.90;;;;;;5100512;28;20417;-64
2022/10/19 05:11:18;;;;;;;9.52;4.22;;;12.70;88.00;;;;;;5100870;28;20058;-64
2022/10/19 05:13:46;;;;;;;9.02;3.75;;;12.80;87.90;;;;;;5091777;28;20042;-64
2022/10/19 05:16:14;;;;;;;7.88;3.85;;;12.70;88.00;;;;;;5099416;28;20051;-64
2022/10/19 05:18:42;;;;;;;8.73;4.10;;;12.70;88.10;;;;;;5099039;27;20395;-64
2022/10/19 05:21:10;;;;;;;9.52;3.75;;;12.70;88.20;;;;;;5095798;28;20044;-63
2022/10/19 05:23:38;;;;;;;7.95;3.95;;;12.70;88.20;;;;;;5097273;28;20059;-64
2022/10/19 05:26:08;;;;;;;9.77;4.25;;;12.60;88.30;;;;;;5093117;28;20048;-64
2022/10/19 05:28:36;;;;;;;9.98;4.25;;;12.60;88.30;;;;;;5094409;28;20129;-63
2022/10/19 05:31:08;;;;;;;8.73;4.18;;;12.60;88.10;;;;;;5095189;28;20043;-65
2022/10/19 05:33:36;;;;;;;9.02;4.20;;;12.60;88.10;;;;;;5093295;28;20082;-64
2022/10/19 05:36:14;;;;;;;7.93;3.95;;;12.60;88.00;;;;;;5093027;27;20884;-64
2022/10/19 05:38:42;;;;;;;8.27;4.50;;;12.60;87.90;;;;;;5086365;28;20147;-64
2022/10/19 05:41:10;;;;;;;8.65;4.00;;;12.60;87.80;;;;;;5090767;28;20037;-63
2022/10/19 05:43:38;;;;;;;8.30;4.40;;;12.60;87.80;;;;;;5092796;28;20051;-65
2022/10/19 05:46:06;;;;;;;7.68;3.58;;;12.60;87.80;;;;;;5097734;28;20052;-64
2022/10/19 05:48:33;;;;;;;10.77;4.70;;;12.60;87.80;;;;;;5099784;27;20127;-65
2022/10/19 05:51:01;;;;;;;8.82;4.28;;;12.60;87.80;;;;;;5097888;28;20039;-65
2022/10/19 05:53:28;;;;;;;7.93;3.97;;;12.50;88.10;;;;;;5100721;28;20047;-64
2022/10/19 05:55:55;;;;;;;7.80;3.92;;;12.60;88.00;;;;;;5100809;28;20040;-64
2022/10/19 05:58:24;;;;;;;7.38;4.00;;;12.60;87.80;;;;;;5095446;28;20083;-65
2022/10/19 06:00:52;;;;;;;9.43;3.63;;;12.50;88.00;;;;;;5090108;28;20521;-63
2022/10/19 06:03:20;;;;;;;8.32;4.13;;;12.50;88.20;;;;;;5090942;28;20051;-64
2022/10/19 06:05:50;;;;;;;8.48;3.85;;;12.50;88.00;;;;;;5088817;28;20071;-65
2022/10/19 06:08:17;;;;;;;8.05;4.03;;;12.50;88.10;;;;;;5087318;28;20048;-65
2022/10/19 06:10:45;;;;;;;7.78;4.20;;;12.50;88.00;;;;;;5096985;28;20432;-65
2022/10/19 06:13:15;;;;;;;9.27;4.50;;;12.60;88.00;;;;;;5097094;28;20135;-64
2022/10/19 06:15:43;;;;;;;9.15;5.22;;;12.50;88.20;;;;;;5094108;28;20137;-65
2022/10/19 06:18:12;;;;;;;7.53;4.70;;;12.50;88.20;;;;;;5088309;28;20090;-65
2022/10/19 06:20:41;;;;;;;6.88;3.80;;;12.50;88.30;;;;;;5094685;28;20407;-64
2022/10/19 06:23:08;;;;;;;9.65;4.20;;;12.60;88.30;;;;;;5096260;28;20059;-63
2022/10/19 06:25:36;;;;;;;9.18;4.57;;;12.60;88.20;;;;;;5095066;28;20048;-64
2022/10/19 06:28:05;;;;;;;9.05;4.28;;;12.60;88.20;;;;;;5085571;28;20544;-63
2022/10/19 06:30:31;;;;;;;11.60;4.45;;;12.60;88.30;;;;;;5091770;28;20044;-63
2022/10/19 06:33:00;;;;;;;9.32;5.35;;;12.60;88.20;;;;;;5097114;28;20056;-65
2022/10/19 06:35:27;;;;;;;12.10;4.53;;;12.60;88.20;;;;;;5091410;28;20069;-65
2022/10/19 06:37:56;;;;;;;8.35;4.38;;;12.60;88.50;;;;;;5087313;28;20122;-64
2022/10/19 06:40:23;;;;;;;11.35;5.10;;;12.60;88.50;;;;;;5093532;27;20048;-64
2022/10/19 06:42:50;;;;;;;9.93;4.32;;;12.60;88.40;;;;;;5092822;27;20383;-65
2022/10/19 06:45:17;;;;;;;12.50;5.63;;;12.60;88.70;;;;;;5093344;28;20094;-65
2022/10/19 06:47:44;;;;;;;9.73;4.90;;;12.60;88.40;;;;;;5096624;28;20047;-64
2022/10/19 06:50:12;;;;;;;9.60;4.45;;;12.60;88.40;;;;;;5090912;28;20171;-64
2022/10/19 06:52:39;;;;;;;9.07;4.95;;;12.60;88.50;;;;;;5086431;28;20044;-65
2022/10/19 06:55:07;;;;;;;9.55;4.60;;;12.60;88.70;;;;;;5096027;27;20051;-64
2022/10/19 06:57:34;;;;;;;9.20;4.82;;;12.60;88.40;;;;;;5095874;28;20044;-65
2022/10/19 07:00:03;;;;;;;9.35;4.65;;;12.60;88.50;;;;;;5092771;28;20040;-65
2022/10/19 07:02:30;;;;;;;8.35;4.88;;;12.70;88.50;;;;;;5095030;27;20071;-64
2022/10/19 07:04:57;;;;;;;12.77;5.45;;;12.70;88.70;;;;;;5091503;28;20075;-64
2022/10/19 07:07:25;;;;;;;8.52;4.88;;;12.60;88.60;;;;;;5094656;28;20052;-64
2022/10/19 07:09:52;;;;;;;11.18;5.10;;;12.70;88.60;;;;;;5088058;28;20122;-63
2022/10/19 07:12:20;;;;;;;10.50;4.63;;;12.70;88.50;;;;;;5085214;28;20056;-64
2022/10/19 07:14:46;;;;;;;8.60;4.60;;;12.70;88.60;;;;;;5090441;28;20071;-64
2022/10/19 07:17:13;;;;;;;9.75;4.85;;;12.70;88.50;;;;;;5092771;28;20048;-65
2022/10/19 07:19:40;;;;;;;13.63;5.57;;;12.70;88.40;;;;;;5092614;28;20488;-64
2022/10/19 07:22:07;;;;;;;8.63;4.65;;;12.70;88.60;;;;;;5091100;28;20047;-64
2022/10/19 07:24:36;;;;;;;9.50;4.53;;;12.70;88.40;;;;;;5096981;28;20035;-65
2022/10/19 07:27:02;;;;;;;9.00;4.32;;;12.70;88.40;;;;;;5090335;28;20197;-61
2022/10/19 07:29:29;;;;;;;8.52;4.85;;;12.70;88.40;;;;;;5089544;28;20066;-64
2022/10/19 07:31:56;;;;;;;10.27;4.47;;;12.70;88.40;;;;;;5087893;28;20068;-64
2022/10/19 07:34:25;;;;;;;12.07;5.15;;;12.70;88.40;;;;;;5090111;27;20129;-63
2022/10/19 07:36:53;;;;;;;9.57;4.47;;;12.70;88.40;;;;;;5092713;28;20044;-64
2022/10/19 07:39:21;;;;;;;11.70;4.80;;;12.80;88.50;;;;;;5093748;28;20062;-70
2022/10/19 07:41:49;;;;;;;11.55;4.95;;;12.80;88.60;;;;;;5119415;28;20040;-64
2022/10/19 07:44:16;;;;;;;10.02;5.20;;;12.80;88.30;;;;;;5106991;28;20089;-65
2022/10/19 07:46:43;;;;;;;10.93;5.45;;;12.80;88.50;;;;;;5093452;28;20062;-64
2022/10/19 07:49:15;;;;;;;11.48;5.20;;;12.80;88.30;;;;;;5089842;28;20048;-65
2022/10/19 07:51:42;;;;;;;8.55;5.28;;;12.90;88.20;;;;;;5092095;28;20105;-64
2022/10/19 07:54:09;;;;;;;10.10;5.28;;;12.90;88.30;;;;;;5094130;28;20058;-64
2022/10/19 07:56:36;;;;;;;9.85;5.38;;;12.90;88.60;;;;;;5084941;28;20057;-64
2022/10/19 07:59:05;;;;;;;10.48;5.13;;;13.00;88.40;;;;;;5092838;28;20040;-65
2022/10/19 08:01:33;;;;;;;10.52;5.75;;;12.90;88.20;;;;;;5092104;28;20040;-65
2022/10/19 08:04:01;;;;;;;9.77;5.03;;;12.90;88.00;;;;;;5092461;28;20052;-65
2022/10/19 08:06:29;;;;;;;10.38;4.88;;;13.00;88.00;;;;;;5085341;28;20406;-64
2022/10/19 08:08:56;;;;;;;10.35;4.90;;;12.90;88.10;;;;;;5093968;28;20052;-63
2022/10/19 08:11:25;;;;;;;10.88;4.70;;;13.00;88.00;;;;;;5092101;28;20044;-65
2022/10/19 08:13:53;;;;;;;11.10;4.97;;;13.00;87.80;;;;;;5092219;28;20797;-65
2022/10/19 08:16:24;;;;;;;11.15;5.38;;;13.00;88.00;;;;;;5093285;28;20050;-64
2022/10/19 08:18:53;;;;;;;8.55;4.55;;;13.10;87.60;;;;;;5090967;28;20058;-62
2022/10/19 08:21:20;;;;;;;13.20;5.30;;;13.00;87.60;;;;;;5089846;28;20043;-64
2022/10/19 08:23:46;;;;;;;10.50;5.00;;;13.00;87.60;;;;;;5082926;28;20485;-65
2022/10/19 08:26:13;;;;;;;10.30;4.63;;;13.00;87.50;;;;;;5089957;28;20048;-65
2022/10/19 08:28:41;;;;;;;9.02;4.78;;;13.00;87.50;;;;;;5095139;28;20137;-65
2022/10/19 08:31:12;;;;;;;10.45;4.45;;;13.00;87.30;;;;;;5092243;28;20051;-65
2022/10/19 08:33:41;;;;;;;9.85;4.55;;;13.00;87.20;;;;;;5091804;28;20238;-63
2022/10/19 08:36:09;;;;;;;8.25;4.38;;;13.00;87.20;;;;;;5093084;28;20052;-66
2022/10/19 08:38:37;;;;;;;8.40;4.13;;;13.10;87.20;;;;;;5084642;28;20047;-64
2022/10/19 08:41:18;;;;;;;8.82;4.72;;;13.10;87.00;;;;;;5072542;28;20070;-65
2022/10/19 08:44:00;;;;;;;9.98;5.20;;;13.10;86.80;;;;;;5093580;28;20053;-64
2022/10/19 08:46:38;;;;;;;9.05;4.43;;;13.20;86.60;;;;;;5092760;28;20107;-64
2022/10/19 08:49:09;;;;;;;8.90;4.47;;;13.20;86.50;;;;;;5088796;28;20051;-64
2022/10/19 08:51:39;;;;;;;10.38;5.25;;;13.30;86.30;;;;;;5094035;28;20142;-64
2022/10/19 08:54:12;;;;;;;9.20;4.65;;;13.40;86.30;;;;;;5089307;28;20515;-64
2022/10/19 08:56:46;;;;;;;10.07;4.90;;;13.40;86.30;;;;;;5081896;28;20534;-65
2022/10/19 08:59:21;;;;;;;9.27;4.47;;;13.50;86.20;;;;;;5087474;28;20066;-65
2022/10/19 09:01:52;;;;;;;8.98;4.65;;;13.40;85.70;;;;;;5088925;28;20130;-65
2022/10/19 09:04:24;;;;;;;10.63;5.20;;;13.40;85.60;;;;;;5094533;28;20170;-65
2022/10/19 09:07:25;;;;;;;9.27;4.57;;;13.40;85.40;;;;;;5093378;28;20048;-65
2022/10/19 09:09:57;;;;;;;8.75;4.85;;;13.40;85.20;;;;;;5088576;28;20112;-64
2022/10/19 09:12:37;;;;;;;8.93;5.43;;;13.40;85.30;;;;;;5086408;28;20481;-65
2022/10/19 09:15:07;;;;;;;8.48;4.93;;;13.40;85.10;;;;;;5093191;28;20494;-65
2022/10/19 09:17:35;;;;;;;9.93;5.03;;;13.40;85.00;;;;;;5094595;28;20040;-65
2022/10/19 09:20:15;;;;;;;9.18;4.80;;;13.40;84.90;;;;;;5090009;28;20043;-65
2022/10/19 09:22:42;;;;;;;;;;;13.40;85.00;;;;;;5095031;28;20076;-65
2022/10/19 09:25:14;;;;;;;10.25;4.43;;;13.60;85.00;;;;;;5086384;28;19935;-66
2022/10/19 09:27:47;;;;;;;10.68;4.53;;;13.60;84.70;;;;;;5093620;28;20152;-65
2022/10/19 09:30:19;;;;;;;7.80;4.30;;;13.70;84.70;;;;;;5093755;28;20048;-64
2022/10/19 09:32:48;;;;;;;8.27;3.80;;;13.70;84.60;;;;;;5088691;28;20044;-65
2022/10/19 09:35:24;;;;;;;9.10;4.00;;;13.60;84.50;;;;;;5090169;28;20044;-65
2022/10/19 09:37:51;;;;;;;8.20;3.53;;;13.60;84.70;;;;;;5094726;28;20036;-65
2022/10/19 09:40:21;;;;;;;8.30;3.75;;;13.60;84.50;;;;;;5092185;28;20067;-65
2022/10/19 09:42:55;;;;;;;7.93;3.40;;;13.50;84.50;;;;;;5087131;28;20051;-64
2022/10/19 09:45:32;;;;;;;8.48;4.03;;;13.50;84.30;;;;;;5090295;28;20062;-65
2022/10/19 09:48:00;;;;;;;7.72;3.53;;;13.50;84.40;;;;;;5091157;28;20535;-64
2022/10/19 09:50:31;;;;;;;7.65;3.28;;;13.40;84.40;;;;;;5093973;28;20131;-65
2022/10/19 09:52:59;;;;;;;6.60;3.30;;;13.40;84.50;;;;;;5092040;28;20089;-65
2022/10/19 09:55:35;;;;;;;7.32;3.38;;;13.40;84.60;;;;;;5097786;27;20191;-65
2022/10/19 09:58:06;;;;;;;8.02;3.50;;;13.40;84.40;;;;;;5097340;27;20464;-67
2022/10/19 10:00:36;;;;;;;7.57;3.22;;;13.40;84.50;;;;;;5090699;28;20435;-65
2022/10/19 10:03:03;;;;;;;;;;;13.60;84.50;;;;;;5097042;28;20388;-63
2022/10/19 10:05:33;;;;;;;6.40;2.65;;;13.60;84.60;;;;;;5096228;28;20477;-65
2022/10/19 10:08:01;;;;;;;7.85;3.33;;;13.70;84.20;;;;;;5097500;28;20478;-65
2022/10/19 10:10:35;;;;;;;8.20;3.10;;;13.90;84.20;;;;;;5093145;28;20071;-64
2022/10/19 10:13:03;;;;;;;7.95;3.17;;;13.90;84.20;;;;;;5095430;28;20043;-64
2022/10/19 10:15:42;;;;;;;8.57;3.17;;;14.00;83.80;;;;;;5092411;28;20127;-65
2022/10/19 10:18:14;;;;;;;6.13;2.65;;;14.10;83.70;;;;;;5086558;28;20040;-65
2022/10/19 10:21:04;;;;;;;5.35;2.53;;;14.20;83.60;;;;;;5097855;28;20097;-65
2022/10/19 10:23:35;;;;;;;6.68;2.90;;;14.40;83.30;;;;;;5106999;28;20048;-66
2022/10/19 10:26:02;;;;;;;5.63;2.83;;;14.40;83.30;;;;;;5107341;28;20058;-64
2022/10/19 10:28:30;;;;;;;5.97;3.22;;;14.50;83.40;;;;;;5093740;28;20058;-65
2022/10/19 10:31:01;;;;;;;6.47;2.72;;;14.60;83.40;;;;;;5097546;28;20118;-64
2022/10/19 10:33:30;;;;;;;9.60;2.67;;;14.60;83.60;;;;;;5093866;28;20074;-65
2022/10/19 10:36:04;;;;;;;6.22;2.90;;;14.70;83.80;;;;;;5091414;27;20145;-65
2022/10/19 10:38:34;;;;;;;6.45;3.20;;;14.70;83.70;;;;;;5095258;28;20063;-65
2022/10/19 10:41:06;;;;;;;8.02;2.88;;;14.70;83.90;;;;;;5092530;28;20481;-65
2022/10/19 10:43:38;;;;;;;6.63;2.95;;;14.60;84.10;;;;;;5093986;27;20044;-71
2022/10/19 10:46:08;;;;;;;7.45;2.97;;;14.70;83.90;;;;;;5093746;28;20130;-66
2022/10/19 10:48:38;;;;;;;7.32;2.85;;;14.80;83.60;;;;;;5094866;28;20130;-63
2022/10/19 10:51:20;;;;;;;7.45;2.78;;;14.90;83.50;;;;;;5085839;28;20059;-63
2022/10/19 10:53:47;;;;;;;9.18;3.53;;;14.90;83.50;;;;;;5093325;28;20050;-65
2022/10/19 10:56:24;;;;;;;6.50;2.90;;;14.80;83.30;;;;;;5094795;28;20043;-63
2022/10/19 10:58:57;;;;;;;8.00;3.22;;;14.80;83.40;;;;;;5095746;28;20467;-65
2022/10/19 11:01:29;;;;;;;7.88;3.55;;;14.90;83.30;;;;;;5091051;28;20127;-65
2022/10/19 11:04:01;;;;;;;7.10;3.25;;;14.80;83.40;;;;;;5092729;28;20047;-64
2022/10/19 11:06:31;;;;;;;6.97;3.47;;;14.70;83.40;;;;;;5093391;28;20043;-64
2022/10/19 11:09:02;;;;;;;;;;;14.70;83.60;;;;;;5096451;28;20052;-64
2022/10/19 11:11:34;;;;;;;7.15;2.72;;;14.60;83.60;;;;;;5093731;28;19923;-65
2022/10/19 11:14:21;;;;;;;8.80;3.30;;;14.70;83.70;;;;;;5094340;27;20135;-65
2022/10/19 11:16:51;;;;;;;6.82;3.22;;;14.60;83.90;;;;;;5097135;28;20118;-66
2022/10/19 11:19:22;;;;;;;6.85;3.50;;;14.60;83.80;;;;;;5092707;28;20050;-65
2022/10/19 11:21:59;;;;;;;7.22;3.20;;;14.60;83.70;;;;;;5090223;28;20478;-65
2022/10/19 11:24:36;;;;;;;6.35;3.03;;;14.60;84.00;;;;;;5090166;28;20553;-65
2022/10/19 11:27:15;;;;;;;7.78;4.10;;;14.60;83.90;;;;;;5088688;28;20044;-64
2022/10/19 11:29:55;;;;;;;9.13;3.42;;;14.70;83.90;;;;;;5094187;28;20385;-65
2022/10/19 11:32:32;;;;;;;7.13;3.50;;;14.70;83.90;;;;;;5074582;28;20048;-65
2022/10/19 11:35:12;;;;;;;11.43;3.92;;;14.70;83.80;;;;;;5082286;28;20046;-65
2022/10/19 11:37:48;;;;;;;8.65;3.65;;;14.80;83.50;;;;;;5088416;28;20044;-64
2022/10/19 11:40:21;;;;;;;9.07;4.45;;;14.90;83.80;;;;;;5091794;28;20044;-65
2022/10/19 11:42:56;;;;;;;8.63;3.70;;;14.90;84.10;;;;;;5091118;28;20135;-64
2022/10/19 11:45:41;;;;;;;7.45;3.83;;;14.90;83.90;;;;;;5092085;27;20055;-64
2022/10/19 11:48:25;;;;;;;7.65;3.13;;;14.90;83.90;;;;;;5093847;28;20505;-65
2022/10/19 11:50:56;;;;;;;6.47;3.60;;;14.90;83.90;;;;;;5093360;28;20039;-65
2022/10/19 11:53:34;;;;;;;7.68;3.15;;;14.90;83.70;;;;;;5091402;28;20393;-65
2022/10/19 11:56:09;;;;;;;6.80;3.40;;;14.90;83.60;;;;;;5090098;27;20081;-64
2022/10/19 11:58:52;;;;;;;6.30;3.38;;;15.00;83.50;;;;;;5096128;28;20126;-64
2022/10/19 12:01:30;;;;;;;7.65;3.40;;;15.00;83.40;;;;;;5094673;28;20055;-65
2022/10/19 12:04:23;;;;;;;6.65;2.85;;;15.00;83.50;;;;;;5088764;28;20044;-65
2022/10/19 12:06:58;;;;;;;7.35;3.00;;;15.00;83.70;;;;;;5091212;28;20055;-65
2022/10/19 12:09:43;;;;;;;6.80;3.53;;;15.10;83.60;;;;;;5085906;28;20042;-64
2022/10/19 12:12:29;;;;;;;6.68;2.83;;;15.10;83.60;;;;;;5090386;28;20051;-64
2022/10/19 12:15:12;;;;;;;8.50;3.05;;;15.10;83.60;;;;;;5088948;28;20134;-67
2022/10/19 12:17:44;;;;;;;7.07;3.22;;;15.10;83.70;;;;;;5088954;28;20478;-64
2022/10/19 12:20:24;;;;;;;5.75;2.85;;;15.10;83.50;;;;;;5090079;28;20060;-65
2022/10/19 12:22:51;;;;;;;6.57;3.25;;;15.10;83.60;;;;;;5091830;28;20043;-64
2022/10/19 12:25:20;;;;;;;6.75;2.80;;;15.10;83.70;;;;;;5088791;28;20482;-64
2022/10/19 12:27:49;;;;;;;7.80;3.30;;;15.20;83.80;;;;;;5088446;28;20489;-65
2022/10/19 12:30:19;;;;;;;7.50;3.22;;;15.20;83.80;;;;;;5092014;28;20044;-65
2022/10/19 12:32:58;;;;;;;5.97;2.97;;;15.20;83.80;;;;;;5088220;28;20698;-65
2022/10/19 12:35:39;;;;;;;7.03;2.97;;;15.20;83.80;;;;;;5084779;28;20044;-65
2022/10/19 12:38:14;;;;;;;6.78;2.83;;;15.20;83.90;;;;;;5089080;28;20047;-66
2022/10/19 12:40:48;;;;;;;7.10;2.75;;;15.20;84.00;;;;;;5090219;28;20582;-65
2022/10/19 12:43:20;;;;;;;6.35;2.75;;;15.30;84.10;;;;;;5093987;28;20516;-65
2022/10/19 12:45:52;;;;;;;5.68;2.40;;;15.20;84.20;;;;;;5088704;28;20491;-65
2022/10/19 12:48:21;;;;;;;8.60;2.63;;;15.30;84.10;;;;;;5086961;28;20128;-65
2022/10/19 12:51:04;;;;;;;6.70;3.17;;;15.30;83.90;;;;;;5091813;28;20116;-65
2022/10/19 12:53:34;;;;;;;6.80;2.72;;;15.40;84.00;;;;;;5089674;28;20060;-65
2022/10/19 12:56:05;;;;;;;7.45;2.90;;;15.40;84.00;;;;;;5081976;28;20090;-65
2022/10/19 12:58:38;;;;;;;4.72;2.30;;;15.30;84.20;;;;;;5085084;28;20123;-65
2022/10/19 13:01:07;;;;;;;9.95;2.80;;;15.30;84.10;;;;;;5088760;28;20053;-65
2022/10/19 13:03:36;;;;;;;4.13;2.28;;;15.40;84.20;;;;;;5092033;28;20131;-65